CDG weather

Charles de Gaulle International Airport
Paris, Île-de-France, France

Public forecast

Using degrees Celsius for public forecast. Weather courtesy of forecast.io.

METAR (pilot weather report)

Retrieved 2017/06/28 21:30 UTC (30 minutes ago):

LFPG 282130Z 28006KT 9999 FEW026 SCT140 17/13 Q0998 BECMG SCT030

TAF (pilot weather forecast)

Retrieved 2017/06/28 18:21 UTC (4 hours ago):

TAF LFPG 281700Z 2818/2924 26010KT 9999 FEW030TCU SCT045 BKN060 BECMG 2818/2819 SCT030 PROB30 TEMPO 2821/2906 4000 -SHRA SCT015TCU TEMPO 2900/2908 BKN008 BECMG 2908/2910 FEW025TCU SCT030 PROB30 TEMPO 2914/2918 20015G25KT 2500 -TSRAGR SCT025CB BECMG 2920/2922 BKN014 TX21/2914Z TN14/2915Z